createdAt,value
2022-08-26T00:02:02.694Z,7.30
2022-08-26T00:04:31.436Z,7.13
2022-08-26T00:07:00.255Z,8.50
2022-08-26T00:09:30.413Z,7.70
2022-08-26T00:11:59.067Z,8.07
2022-08-26T00:14:31.176Z,7.87
2022-08-26T00:17:00.381Z,8.33
2022-08-26T00:19:29.272Z,8.50
2022-08-26T00:21:57.931Z,7.40
2022-08-26T00:24:26.593Z,8.30
2022-08-26T00:26:56.420Z,8.47
2022-08-26T00:29:25.169Z,8.93
2022-08-26T00:31:53.623Z,7.93
2022-08-26T00:34:22.183Z,8.20
2022-08-26T00:36:51.963Z,8.07
2022-08-26T00:39:21.098Z,8.80
2022-08-26T00:41:50.513Z,8.67
2022-08-26T00:44:21.611Z,7.67
2022-08-26T00:46:54.085Z,7.57
2022-08-26T00:49:31.275Z,7.73
2022-08-26T00:52:04.171Z,7.67
2022-08-26T00:54:40.392Z,8.10
2022-08-26T00:57:16.454Z,7.53
2022-08-26T00:59:48.305Z,7.80
2022-08-26T01:02:21.257Z,7.70
2022-08-26T01:04:54.242Z,8.20
2022-08-26T01:07:26.128Z,7.90
2022-08-26T01:09:55.604Z,7.20
2022-08-26T01:12:26.019Z,7.53
2022-08-26T01:14:56.857Z,7.83
2022-08-26T01:17:25.540Z,7.50
2022-08-26T01:20:03.617Z,7.40
2022-08-26T01:22:39.754Z,7.47
2022-08-26T01:25:10.164Z,6.97
2022-08-26T01:27:38.692Z,7.30
2022-08-26T01:30:08.587Z,7.20
2022-08-26T01:32:38.985Z,7.07
2022-08-26T01:35:09.283Z,7.13
2022-08-26T01:37:40.604Z,7.30
2022-08-26T01:40:17.789Z,7.00
2022-08-26T01:42:49.087Z,6.80
2022-08-26T01:45:20.971Z,6.97
2022-08-26T01:47:57.127Z,6.87
2022-08-26T01:50:30.720Z,7.20
2022-08-26T01:53:05.081Z,7.03
2022-08-26T01:55:35.493Z,7.73
2022-08-26T01:58:09.766Z,7.23
2022-08-26T02:00:39.230Z,6.97
2022-08-26T02:03:18.381Z,6.07
2022-08-26T02:05:51.388Z,7.23
2022-08-26T02:08:24.903Z,6.77
2022-08-26T02:10:54.761Z,6.77
2022-08-26T02:13:26.649Z,6.60
2022-08-26T02:15:56.559Z,7.20
2022-08-26T02:18:26.488Z,7.10
2022-08-26T02:20:57.099Z,6.70
2022-08-26T02:23:27.212Z,6.53
2022-08-26T02:25:59.075Z,7.23
2022-08-26T02:28:32.639Z,6.87
2022-08-26T02:31:02.725Z,7.33
2022-08-26T02:33:31.400Z,6.33
2022-08-26T02:35:59.903Z,7.40
2022-08-26T02:38:30.242Z,5.93
2022-08-26T02:40:59.127Z,5.90
2022-08-26T02:43:31.352Z,6.30
2022-08-26T02:46:02.643Z,6.20
2022-08-26T02:48:31.624Z,6.07
2022-08-26T02:51:02.640Z,6.07
2022-08-26T02:53:35.547Z,5.70
2022-08-26T02:56:05.224Z,6.37
2022-08-26T02:58:33.732Z,5.90
2022-08-26T03:01:04.765Z,6.00
2022-08-26T03:03:34.252Z,6.63
2022-08-26T03:06:02.878Z,6.47
2022-08-26T03:08:32.716Z,6.27
2022-08-26T03:11:01.562Z,6.57
2022-08-26T03:13:30.515Z,6.17
2022-08-26T03:16:01.808Z,6.30
2022-08-26T03:18:30.576Z,6.83
2022-08-26T03:20:59.167Z,5.70
2022-08-26T03:23:27.645Z,6.07
2022-08-26T03:25:58.476Z,6.13
2022-08-26T03:28:27.400Z,6.30
2022-08-26T03:30:55.101Z,6.23
2022-08-26T03:33:25.166Z,6.27
2022-08-26T03:35:54.812Z,5.87
2022-08-26T03:38:25.350Z,5.90
2022-08-26T03:40:54.055Z,6.37
2022-08-26T03:43:26.786Z,5.97
2022-08-26T03:45:55.223Z,6.00
2022-08-26T03:48:23.667Z,6.27
2022-08-26T03:50:52.136Z,5.93
2022-08-26T03:53:20.682Z,5.63
2022-08-26T03:55:51.760Z,5.90
2022-08-26T03:58:21.526Z,5.50
2022-08-26T04:00:55.666Z,5.53
2022-08-26T04:03:38.551Z,4.97
2022-08-26T04:06:08.052Z,5.57
2022-08-26T04:08:37.870Z,5.17
2022-08-26T04:11:07.679Z,5.37
2022-08-26T04:13:36.282Z,6.03
2022-08-26T04:16:06.704Z,6.03
2022-08-26T04:18:38.037Z,5.00
2022-08-26T04:21:15.664Z,5.20
2022-08-26T04:23:47.116Z,5.70
2022-08-26T04:26:16.552Z,6.30
2022-08-26T04:28:45.042Z,5.03
2022-08-26T04:31:16.638Z,5.00
2022-08-26T04:33:47.579Z,5.60
2022-08-26T04:36:20.117Z,5.63
2022-08-26T04:38:50.696Z,5.43
2022-08-26T04:41:20.731Z,5.27
2022-08-26T04:43:50.316Z,5.50
2022-08-26T04:46:24.435Z,5.63
2022-08-26T04:48:55.843Z,5.37
2022-08-26T04:51:28.020Z,5.27
2022-08-26T04:53:57.231Z,5.23
2022-08-26T04:56:26.500Z,5.20
2022-08-26T04:58:54.938Z,5.67
2022-08-26T05:01:24.985Z,5.20
2022-08-26T05:03:54.843Z,5.97
2022-08-26T05:06:23.431Z,5.70
2022-08-26T05:08:51.922Z,5.77
2022-08-26T05:11:22.175Z,5.53
2022-08-26T05:13:50.920Z,5.70
2022-08-26T05:16:19.628Z,5.13
2022-08-26T05:18:50.087Z,5.43
2022-08-26T05:21:20.593Z,5.30
2022-08-26T05:23:51.359Z,4.97
2022-08-26T05:26:23.043Z,5.20
2022-08-26T05:28:54.693Z,5.40
2022-08-26T05:31:25.560Z,5.63
2022-08-26T05:33:56.911Z,4.70
2022-08-26T05:36:27.601Z,4.57
2022-08-26T05:38:56.884Z,4.43
2022-08-26T05:41:34.289Z,4.77
2022-08-26T05:44:07.616Z,4.80
2022-08-26T05:46:38.193Z,4.70
2022-08-26T05:49:12.410Z,4.67
2022-08-26T05:51:45.817Z,4.90
2022-08-26T05:54:14.423Z,4.57
2022-08-26T05:56:51.266Z,4.10
2022-08-26T05:59:24.147Z,5.13
2022-08-26T06:01:54.615Z,4.80
2022-08-26T06:04:27.160Z,4.40
2022-08-26T06:06:58.527Z,5.03
2022-08-26T06:09:27.383Z,4.80
2022-08-26T06:11:58.723Z,5.00
2022-08-26T06:14:27.205Z,5.10
2022-08-26T06:16:55.635Z,4.50
2022-08-26T06:19:25.743Z,5.00
2022-08-26T06:22:22.546Z,4.83
2022-08-26T06:25:10.121Z,4.50
2022-08-26T06:27:38.701Z,4.50
2022-08-26T06:30:09.724Z,4.33
2022-08-26T06:32:38.227Z,4.50
2022-08-26T06:35:12.080Z,4.47
2022-08-26T06:37:41.229Z,4.27
2022-08-26T06:40:11.463Z,4.37
2022-08-26T06:42:40.044Z,4.40
2022-08-26T06:45:09.483Z,5.23
2022-08-26T06:47:39.968Z,4.60
2022-08-26T06:50:10.487Z,4.33
2022-08-26T06:52:41.895Z,4.50
2022-08-26T06:55:11.132Z,4.10
2022-08-26T06:57:41.143Z,4.17
2022-08-26T07:00:11.691Z,4.23
2022-08-26T07:02:41.064Z,4.43
2022-08-26T07:05:16.876Z,4.53
2022-08-26T07:07:45.291Z,4.70
2022-08-26T07:10:13.738Z,4.57
2022-08-26T07:12:42.406Z,3.93
2022-08-26T07:15:16.229Z,4.30
2022-08-26T07:17:44.663Z,3.80
2022-08-26T07:20:13.612Z,4.03
2022-08-26T07:22:43.767Z,4.40
2022-08-26T07:25:12.467Z,4.40
2022-08-26T07:27:40.937Z,4.40
2022-08-26T07:30:10.619Z,4.83
2022-08-26T07:32:43.451Z,5.50
2022-08-26T07:35:11.920Z,5.00
2022-08-26T07:37:40.696Z,5.30
2022-08-26T07:40:11.869Z,4.87
2022-08-26T07:42:41.064Z,4.63
2022-08-26T07:45:09.808Z,4.70
2022-08-26T07:47:38.275Z,5.40
2022-08-26T07:50:07.404Z,4.30
2022-08-26T07:52:37.598Z,4.07
2022-08-26T07:55:08.723Z,4.67
2022-08-26T07:57:38.762Z,4.17
2022-08-26T08:00:13.509Z,3.97
2022-08-26T08:02:44.571Z,3.60
2022-08-26T08:05:18.885Z,3.97
2022-08-26T08:07:47.849Z,4.00
2022-08-26T08:10:25.210Z,4.20
2022-08-26T08:12:57.649Z,3.83
2022-08-26T08:15:29.865Z,3.80
2022-08-26T08:18:00.643Z,3.90
2022-08-26T08:20:30.611Z,4.00
2022-08-26T08:23:00.319Z,4.30
2022-08-26T08:25:29.204Z,4.13
2022-08-26T08:27:59.432Z,3.77
2022-08-26T08:30:28.727Z,4.50
2022-08-26T08:32:57.315Z,4.10
2022-08-26T08:35:26.731Z,4.17
2022-08-26T08:37:55.500Z,3.88
2022-08-26T08:40:26.105Z,3.50
2022-08-26T08:43:00.796Z,3.57
2022-08-26T08:45:36.721Z,3.90
2022-08-26T08:48:12.772Z,3.80
2022-08-26T08:50:44.619Z,3.70
2022-08-26T08:53:18.547Z,4.32
2022-08-26T08:56:00.309Z,3.85
2022-08-26T08:58:44.224Z,4.05
2022-08-26T09:01:22.480Z,3.53
2022-08-26T09:04:03.512Z,3.60
2022-08-26T09:06:32.521Z,4.10
2022-08-26T09:09:03.779Z,4.10
2022-08-26T09:11:32.492Z,3.72
2022-08-26T09:14:02.484Z,3.55
2022-08-26T09:16:38.535Z,4.68
2022-08-26T09:19:19.301Z,3.88
2022-08-26T09:21:56.756Z,4.25
2022-08-26T09:24:28.505Z,3.42
2022-08-26T09:26:59.190Z,3.92
2022-08-26T09:29:31.660Z,3.40
2022-08-26T09:32:19.618Z,3.50
2022-08-26T09:34:57.302Z,3.40
2022-08-26T09:37:38.542Z,3.40
2022-08-26T09:40:34.855Z,3.47
2022-08-26T09:43:10.714Z,3.60
2022-08-26T09:45:49.941Z,3.42
2022-08-26T09:48:35.430Z,3.47
2022-08-26T09:51:06.978Z,3.85
2022-08-26T09:53:50.628Z,3.85
2022-08-26T09:56:27.515Z,3.40
2022-08-26T09:58:57.995Z,4.03
2022-08-26T10:01:32.151Z,3.80
2022-08-26T10:04:08.465Z,3.80
2022-08-26T10:06:41.438Z,4.70
2022-08-26T10:09:14.760Z,8.95
2022-08-26T10:11:54.137Z,3.75
2022-08-26T10:14:27.409Z,3.90
2022-08-26T10:17:02.308Z,3.72
2022-08-26T10:19:55.852Z,3.90
2022-08-26T10:22:32.473Z,3.65
2022-08-26T10:25:04.803Z,4.07
2022-08-26T10:27:48.365Z,3.50
2022-08-26T10:30:23.419Z,3.80
2022-08-26T10:32:54.486Z,3.80
2022-08-26T10:35:23.635Z,3.55
2022-08-26T10:37:56.571Z,3.80
2022-08-26T10:40:28.464Z,3.58
2022-08-26T10:43:09.972Z,4.00
2022-08-26T10:45:45.387Z,4.15
2022-08-26T10:48:18.338Z,3.55
2022-08-26T10:50:48.375Z,3.92
2022-08-26T10:53:25.142Z,3.60
2022-08-26T10:56:02.992Z,5.57
2022-08-26T10:58:48.269Z,4.15
2022-08-26T11:01:41.070Z,3.45
2022-08-26T11:04:22.542Z,3.97
2022-08-26T11:07:11.573Z,3.90
2022-08-26T11:09:45.621Z,3.42
2022-08-26T11:12:49.204Z,3.72
2022-08-26T11:15:51.147Z,4.20
2022-08-26T11:18:40.088Z,3.55
2022-08-26T11:21:49.393Z,3.20
2022-08-26T11:24:41.888Z,3.72
2022-08-26T11:27:12.932Z,3.55
2022-08-26T11:30:02.624Z,3.30
2022-08-26T11:32:50.825Z,3.70
2022-08-26T11:35:50.342Z,3.40
2022-08-26T11:38:29.256Z,3.60
2022-08-26T11:41:07.856Z,4.18
2022-08-26T11:43:39.096Z,4.82
2022-08-26T11:46:10.565Z,3.58
2022-08-26T11:48:41.552Z,3.50
2022-08-26T11:51:14.012Z,3.97
2022-08-26T11:53:47.184Z,3.20
2022-08-26T11:56:25.785Z,3.50
2022-08-26T11:58:57.819Z,3.53
2022-08-26T12:01:31.327Z,3.30
2022-08-26T12:04:01.455Z,3.40
2022-08-26T12:06:43.333Z,3.33
2022-08-26T12:09:24.965Z,5.18
2022-08-26T12:11:58.070Z,3.20
2022-08-26T12:14:27.662Z,6.40
2022-08-26T12:16:56.398Z,3.97
2022-08-26T12:19:27.471Z,3.08
2022-08-26T12:22:03.424Z,3.47
2022-08-26T12:24:32.088Z,3.50
2022-08-26T12:27:23.539Z,3.75
2022-08-26T12:30:03.619Z,3.30
2022-08-26T12:32:36.260Z,3.72
2022-08-26T12:35:08.400Z,4.10
2022-08-26T12:37:41.161Z,4.00
2022-08-26T12:40:34.359Z,10.70
2022-08-26T12:43:05.335Z,6.07
2022-08-26T12:45:36.425Z,3.95
2022-08-26T12:48:10.131Z,3.72
2022-08-26T12:50:45.163Z,3.80
2022-08-26T12:53:22.323Z,3.25
2022-08-26T12:55:53.978Z,3.50
2022-08-26T12:58:27.522Z,4.00
2022-08-26T13:00:57.732Z,3.58
2022-08-26T13:03:44.560Z,3.92
2022-08-26T13:06:29.695Z,3.50
2022-08-26T13:09:05.366Z,3.53
2022-08-26T13:11:36.368Z,3.42
2022-08-26T13:14:08.218Z,3.42
2022-08-26T13:16:37.884Z,3.80
2022-08-26T13:19:10.944Z,3.40
2022-08-26T13:21:44.767Z,3.42
2022-08-26T13:24:17.620Z,3.85
2022-08-26T13:26:48.995Z,4.03
2022-08-26T13:29:17.612Z,3.92
2022-08-26T13:31:47.203Z,3.40
2022-08-26T13:34:18.934Z,3.50
2022-08-26T13:36:47.530Z,3.35
2022-08-26T13:39:17.835Z,4.00
2022-08-26T13:41:46.472Z,4.00
2022-08-26T13:44:14.999Z,3.63
2022-08-26T13:49:12.880Z,3.58
2022-08-26T13:51:42.779Z,3.70
2022-08-26T13:54:11.264Z,3.70
2022-08-26T13:56:41.108Z,4.10
2022-08-26T13:59:09.935Z,4.80
2022-08-26T14:01:40.079Z,3.40
2022-08-26T14:04:08.698Z,4.03
2022-08-26T14:06:37.424Z,3.63
2022-08-26T14:09:06.488Z,3.60
2022-08-26T14:11:50.891Z,3.80
2022-08-26T14:14:25.703Z,3.20
2022-08-26T14:16:59.817Z,7.05
2022-08-26T14:19:30.398Z,4.32
2022-08-26T14:22:00.602Z,3.80
2022-08-26T14:24:30.041Z,3.40
2022-08-26T14:26:58.610Z,3.55
2022-08-26T14:29:28.496Z,3.63
2022-08-26T14:31:58.676Z,3.50
2022-08-26T14:34:27.169Z,3.45
2022-08-26T14:36:55.572Z,5.78
2022-08-26T14:39:23.997Z,5.93
2022-08-26T14:41:55.731Z,4.57
2022-08-26T14:44:28.219Z,3.80
2022-08-26T14:47:01.055Z,3.65
2022-08-26T14:49:31.177Z,3.67
2022-08-26T14:51:59.748Z,4.15
2022-08-26T14:54:28.828Z,3.80
2022-08-26T14:57:00.683Z,4.38
2022-08-26T14:59:31.319Z,4.07
2022-08-26T15:02:02.538Z,4.95
2022-08-26T15:04:31.696Z,5.70
2022-08-26T15:07:01.452Z,3.50
2022-08-26T15:09:32.663Z,3.25
2022-08-26T15:12:01.161Z,3.78
2022-08-26T15:14:32.930Z,3.53
2022-08-26T15:17:03.191Z,3.60
2022-08-26T15:19:31.631Z,3.90
2022-08-26T15:22:00.267Z,3.55
2022-08-26T15:24:30.011Z,3.47
2022-08-26T15:26:58.814Z,3.10
2022-08-26T15:29:27.307Z,4.28
2022-08-26T15:31:57.306Z,3.60
2022-08-26T15:34:27.621Z,3.05
2022-08-26T15:36:56.391Z,4.70
2022-08-26T15:39:24.995Z,3.80
2022-08-26T15:41:56.055Z,3.83
2022-08-26T15:44:28.072Z,3.92
2022-08-26T15:46:58.835Z,4.40
2022-08-26T15:49:29.101Z,4.05
2022-08-26T15:51:57.521Z,3.83
2022-08-26T15:54:26.097Z,3.58
2022-08-26T15:56:54.700Z,5.75
2022-08-26T15:59:23.591Z,12.10
2022-08-26T16:01:52.794Z,5.05
2022-08-26T16:04:21.647Z,12.25
2022-08-26T16:06:52.324Z,5.40
2022-08-26T16:09:24.340Z,5.38
2022-08-26T16:11:54.220Z,4.38
2022-08-26T16:14:23.533Z,4.00
2022-08-26T16:16:52.245Z,3.55
2022-08-26T16:19:21.539Z,4.13
2022-08-26T16:21:51.906Z,7.05
2022-08-26T16:24:24.901Z,4.85
2022-08-26T16:26:55.427Z,3.90
2022-08-26T16:29:24.442Z,3.28
2022-08-26T16:31:53.789Z,3.50
2022-08-26T16:34:22.794Z,3.72
2022-08-26T16:36:52.988Z,3.83
2022-08-26T16:39:21.484Z,3.67
2022-08-26T16:41:50.148Z,3.50
2022-08-26T16:44:19.561Z,3.55
2022-08-26T16:46:48.307Z,3.83
2022-08-26T16:49:17.065Z,3.60
2022-08-26T16:51:45.700Z,3.58
2022-08-26T16:54:15.543Z,3.60
2022-08-26T16:56:44.120Z,3.67
2022-08-26T16:59:12.548Z,3.72
2022-08-26T17:01:40.942Z,3.33
2022-08-26T17:04:09.479Z,3.50
2022-08-26T17:06:38.335Z,3.65
2022-08-26T17:09:06.927Z,3.80
2022-08-26T17:11:36.979Z,3.42
2022-08-26T17:14:06.355Z,3.30
2022-08-26T17:16:35.430Z,3.80
2022-08-26T17:19:05.485Z,3.92
2022-08-26T17:21:35.760Z,3.70
2022-08-26T17:24:04.686Z,3.60
2022-08-26T17:26:33.532Z,3.33
2022-08-26T17:29:03.452Z,3.58
2022-08-26T17:31:32.501Z,3.55
2022-08-26T17:34:01.077Z,3.92
2022-08-26T17:36:29.726Z,3.50
2022-08-26T17:38:59.075Z,3.63
2022-08-26T17:41:28.320Z,3.20
2022-08-26T17:43:57.303Z,3.78
2022-08-26T17:46:28.073Z,3.60
2022-08-26T17:48:56.715Z,3.70
2022-08-26T17:51:25.464Z,3.95
2022-08-26T17:53:54.011Z,3.45
2022-08-26T17:56:25.523Z,4.10
2022-08-26T17:58:56.520Z,3.38
2022-08-26T18:01:28.999Z,4.00
2022-08-26T18:04:00.476Z,3.75
2022-08-26T18:06:30.680Z,3.40
2022-08-26T18:08:59.796Z,3.75
2022-08-26T18:11:29.120Z,3.80
2022-08-26T18:13:57.585Z,3.90
2022-08-26T18:16:28.115Z,3.97
2022-08-26T18:18:56.677Z,3.85
2022-08-26T18:21:27.276Z,4.30
2022-08-26T18:23:56.228Z,4.15
2022-08-26T18:26:29.092Z,4.18
2022-08-26T18:28:58.155Z,3.95
2022-08-26T18:31:28.325Z,4.40
2022-08-26T18:34:00.169Z,3.53
2022-08-26T18:36:30.755Z,5.10
2022-08-26T18:38:59.775Z,5.72
2022-08-26T18:41:30.313Z,5.45
2022-08-26T18:43:59.484Z,4.57
2022-08-26T18:46:29.595Z,4.35
2022-08-26T18:48:59.145Z,4.93
2022-08-26T18:51:33.692Z,4.82
2022-08-26T18:54:05.428Z,5.05
2022-08-26T18:56:34.784Z,4.57
2022-08-26T18:59:03.864Z,4.18
2022-08-26T19:01:35.243Z,4.22
2022-08-26T19:04:06.082Z,4.22
2022-08-26T19:06:36.331Z,4.20
2022-08-26T19:09:06.657Z,3.65
2022-08-26T19:11:42.977Z,4.25
2022-08-26T19:14:15.188Z,3.97
2022-08-26T19:16:47.873Z,3.95
2022-08-26T19:19:16.972Z,4.60
2022-08-26T19:21:45.868Z,3.90
2022-08-26T19:24:17.617Z,4.40
2022-08-26T19:26:48.455Z,4.43
2022-08-26T19:31:52.593Z,5.05
2022-08-26T19:34:21.190Z,4.22
2022-08-26T19:36:50.482Z,4.72
2022-08-26T19:39:18.993Z,5.30
2022-08-26T19:41:47.884Z,4.18
2022-08-26T19:44:39.816Z,4.35
2022-08-26T19:47:11.081Z,6.32
2022-08-26T19:49:39.753Z,14.20
2022-08-26T19:52:08.764Z,4.38
2022-08-26T19:54:37.415Z,4.20
2022-08-26T19:57:06.352Z,4.60
2022-08-26T19:59:36.173Z,4.40
2022-08-26T20:02:08.474Z,4.30
2022-08-26T20:04:41.608Z,3.60
2022-08-26T20:07:12.908Z,3.72
2022-08-26T20:09:43.725Z,3.35
2022-08-26T20:12:12.224Z,2.83
2022-08-26T20:14:40.769Z,3.03
2022-08-26T20:17:09.313Z,2.78
2022-08-26T20:19:55.367Z,2.85
2022-08-26T20:22:25.562Z,2.63
2022-08-26T20:24:56.580Z,2.72
2022-08-26T20:27:35.573Z,2.70
2022-08-26T20:30:09.737Z,2.42
2022-08-26T20:32:38.814Z,2.97
2022-08-26T20:35:10.280Z,13.95
2022-08-26T20:37:40.793Z,7.85
2022-08-26T20:40:11.376Z,5.10
2022-08-26T20:42:40.405Z,3.70
2022-08-26T20:45:09.931Z,4.20
2022-08-26T20:47:38.510Z,4.85
2022-08-26T20:50:08.541Z,4.50
2022-08-26T20:52:37.043Z,4.27
2022-08-26T20:55:08.037Z,3.97
2022-08-26T20:57:37.324Z,4.38
2022-08-26T21:00:08.605Z,4.50
2022-08-26T21:02:37.501Z,4.50
2022-08-26T21:05:06.887Z,5.32
2022-08-26T21:07:36.002Z,4.77
2022-08-26T21:10:06.553Z,4.78
2022-08-26T21:12:35.529Z,4.70
2022-08-26T21:15:04.419Z,4.72
2022-08-26T21:17:32.863Z,4.83
2022-08-26T21:20:02.460Z,4.50
2022-08-26T21:22:31.132Z,4.80
2022-08-26T21:24:59.551Z,4.53
2022-08-26T21:27:29.408Z,4.60
2022-08-26T21:29:58.095Z,4.40
2022-08-26T21:32:26.659Z,4.93
2022-08-26T21:34:56.923Z,4.23
2022-08-26T21:37:26.556Z,5.03
2022-08-26T21:39:56.064Z,4.63
2022-08-26T21:42:26.319Z,4.80
2022-08-26T21:44:56.218Z,5.00
2022-08-26T21:47:25.472Z,4.97
2022-08-26T21:49:54.293Z,4.43
2022-08-26T21:52:22.891Z,5.10
2022-08-26T21:54:51.371Z,5.07
2022-08-26T21:57:20.876Z,5.30
2022-08-26T21:59:49.316Z,4.60
2022-08-26T22:02:19.903Z,6.30
2022-08-26T22:04:49.065Z,4.87
2022-08-26T22:07:19.152Z,5.70
2022-08-26T22:09:48.620Z,4.87
2022-08-26T22:12:18.349Z,5.47
2022-08-26T22:14:47.146Z,4.90
2022-08-26T22:17:16.957Z,5.10
2022-08-26T22:19:47.011Z,4.73
2022-08-26T22:22:15.824Z,4.60
2022-08-26T22:24:44.404Z,4.53
2022-08-26T22:27:14.093Z,3.80
2022-08-26T22:29:42.727Z,3.60
2022-08-26T22:32:11.337Z,3.57
2022-08-26T22:34:40.724Z,2.97
2022-08-26T22:37:10.848Z,3.40
2022-08-26T22:39:39.485Z,3.00
2022-08-26T22:42:07.999Z,2.83
2022-08-26T22:44:37.573Z,3.17
2022-08-26T22:47:06.370Z,3.27
2022-08-26T22:49:34.978Z,2.90
2022-08-26T22:52:04.208Z,6.70
2022-08-26T22:54:34.327Z,3.90
2022-08-26T22:57:03.289Z,3.10
2022-08-26T22:59:32.369Z,2.83
2022-08-26T23:02:02.543Z,2.80
2022-08-26T23:04:31.367Z,3.10
2022-08-26T23:07:03.598Z,2.80
2022-08-26T23:09:33.965Z,2.80
2022-08-26T23:12:03.386Z,2.60
2022-08-26T23:14:33.699Z,2.60
2022-08-26T23:17:02.556Z,2.33
2022-08-26T23:19:31.208Z,2.93
2022-08-26T23:22:00.072Z,3.03
2022-08-26T23:24:28.648Z,3.10
2022-08-26T23:26:58.801Z,3.47
2022-08-26T23:29:29.032Z,3.30
2022-08-26T23:31:57.886Z,3.60
2022-08-26T23:34:44.131Z,3.10
2022-08-26T23:37:14.652Z,3.50
2022-08-26T23:39:44.023Z,3.50
2022-08-26T23:42:14.249Z,10.03
2022-08-26T23:44:43.047Z,5.43
2022-08-26T23:47:12.820Z,3.07
2022-08-26T23:49:41.915Z,2.97
2022-08-26T23:52:28.680Z,3.10
2022-08-26T23:54:58.149Z,2.90
2022-08-26T23:57:28.553Z,8.27
2022-08-26T23:59:58.004Z,6.93
